Aviation Digital Data Service (ADDS)

Output produced by METARs form (0222 UTC 22 April 2019)
found at http://www.aviationweather.gov/metar/data/
 
METAR text: OTHH 220200Z 06008KT 9999 -RA FEW030 FEW040CB SCT100 26/18 Q1004 NOSIG
Conditions at: OTHH (DOHA HAMAD INTL , QA) observed 0200 UTC 22 April 2019
Temperature: 26.0°C (79°F)
Dewpoint: 18.0°C (64°F) [RH = 61%]
Pressure (altimeter): 29.65 inches Hg (1004.0 mb)
Winds: from the ENE (60 degrees) at 9 MPH (8 knots; 4.1 m/s)
Visibility: 6 or more miles (10+ km)
Ceiling: at least 12,000 feet AGL
Clouds: few clouds at 3000 feet AGL
few clouds at 4000 feet AGL
scattered clouds at 10000 feet AGL
Weather: -RA  (light rain)

METAR text: OTHH 220100Z 08008KT 9999 FEW030 FEW040CB SCT100 27/18 Q1004 NOSIG
Conditions at: OTHH (DOHA HAMAD INTL , QA) observed 0100 UTC 22 April 2019
Temperature: 27.0°C (81°F)
Dewpoint: 18.0°C (64°F) [RH = 58%]
Pressure (altimeter): 29.65 inches Hg (1004.0 mb)
Winds: from the E (80 degrees) at 9 MPH (8 knots; 4.1 m/s)
Visibility: 6 or more miles (10+ km)
Ceiling: at least 12,000 feet AGL
Clouds: few clouds at 3000 feet AGL
few clouds at 4000 feet AGL
scattered clouds at 10000 feet AGL
Weather: no significant weather observed at this time

METAR text: OTHH 220000Z 03006KT 010V070 9999 FEW030 FEW040CB SCT100 27/17 Q1004 NOSIG
Conditions at: OTHH (DOHA HAMAD INTL , QA) observed 0000 UTC 22 April 2019
Temperature: 27.0°C (81°F)
Dewpoint: 17.0°C (63°F) [RH = 54%]
Pressure (altimeter): 29.65 inches Hg (1004.0 mb)
Winds: from the NNE (30 degrees) at 7 MPH (6 knots; 3.1 m/s)
Visibility: 6 or more miles (10+ km)
Ceiling: at least 12,000 feet AGL
Clouds: few clouds at 3000 feet AGL
few clouds at 4000 feet AGL
scattered clouds at 10000 feet AGL
Weather: no significant weather observed at this time

METAR text: OTHH 212300Z 34007KT 9999 FEW030 FEW040CB SCT100 26/17 Q1004 NOSIG
Conditions at: OTHH (DOHA HAMAD INTL , QA) observed 2300 UTC 21 April 2019
Temperature: 26.0°C (79°F)
Dewpoint: 17.0°C (63°F) [RH = 58%]
Pressure (altimeter): 29.65 inches Hg (1004.0 mb)
Winds: from the NNW (340 degrees) at 8 MPH (7 knots; 3.6 m/s)
Visibility: 6 or more miles (10+ km)
Ceiling: at least 12,000 feet AGL
Clouds: few clouds at 3000 feet AGL
few clouds at 4000 feet AGL
scattered clouds at 10000 feet AGL
Weather: no significant weather observed at this time

METAR text: OTHH 212200Z VRB02KT 9999 FEW030 FEW040CB SCT100 27/17 Q1004 RERA NOSIG
Conditions at: OTHH (DOHA HAMAD INTL , QA) observed 2200 UTC 21 April 2019
Temperature: 27.0°C (81°F)
Dewpoint: 17.0°C (63°F) [RH = 54%]
Pressure (altimeter): 29.65 inches Hg (1004.0 mb)
Winds: variable direction winds at 2 MPH (2 knots; 1.0 m/s)
Visibility: 6 or more miles (10+ km)
Ceiling: at least 12,000 feet AGL
Clouds: few clouds at 3000 feet AGL
few clouds at 4000 feet AGL
scattered clouds at 10000 feet AGL
Weather: no significant weather observed at this time

METAR text: OTHH 212100Z 33004KT 290V060 9999 -RA FEW030 FEW040CB SCT100 26/17 Q1004 RETS NOSIG
Conditions at: OTHH (DOHA HAMAD INTL , QA) observed 2100 UTC 21 April 2019
Temperature: 26.0°C (79°F)
Dewpoint: 17.0°C (63°F) [RH = 58%]
Pressure (altimeter): 29.65 inches Hg (1004.0 mb)
Winds: from the NNW (330 degrees) at 5 MPH (4 knots; 2.1 m/s)
Visibility: 6 or more miles (10+ km)
Ceiling: at least 12,000 feet AGL
Clouds: few clouds at 3000 feet AGL
few clouds at 4000 feet AGL
scattered clouds at 10000 feet AGL
Weather: -RA  (light rain)

METAR text: OTHH 212000Z 25007KT 170V280 9999 TS FEW035 FEW040CB SCT100 27/18 Q1006 RERA NOSIG
Conditions at: OTHH (DOHA HAMAD INTL , QA) observed 2000 UTC 21 April 2019
Temperature: 27.0°C (81°F)
Dewpoint: 18.0°C (64°F) [RH = 58%]
Pressure (altimeter): 29.70 inches Hg (1006.0 mb)
Winds: from the WSW (250 degrees) at 8 MPH (7 knots; 3.6 m/s)
Visibility: 6 or more miles (10+ km)
Ceiling: at least 12,000 feet AGL
Clouds: few clouds at 3500 feet AGL
few clouds at 4000 feet AGL
scattered clouds at 10000 feet AGL
Weather: TS  (thunderstorm)

METAR text: OTHH 211900Z 35011KT 9999 TS FEW030 FEW040CB SCT100 SCT120 26/19 Q1004 NOSIG
Conditions at: OTHH (DOHA HAMAD INTL , QA) observed 1900 UTC 21 April 2019
Temperature: 26.0°C (79°F)
Dewpoint: 19.0°C (66°F) [RH = 65%]
Pressure (altimeter): 29.65 inches Hg (1004.0 mb)
Winds: from the N (350 degrees) at 13 MPH (11 knots; 5.7 m/s)
Visibility: 6 or more miles (10+ km)
Ceiling: at least 12,000 feet AGL
Clouds: few clouds at 3000 feet AGL
few clouds at 4000 feet AGL
scattered clouds at 10000 feet AGL
scattered clouds at 12000 feet AGL
Weather: TS  (thunderstorm)

METAR text: OTHH 211800Z 36014KT 9999 FEW040 SCT100 SCT120 27/17 Q1003 RERA NOSIG
Conditions at: OTHH (DOHA HAMAD INTL , QA) observed 1800 UTC 21 April 2019
Temperature: 27.0°C (81°F)
Dewpoint: 17.0°C (63°F) [RH = 54%]
Pressure (altimeter): 29.62 inches Hg (1003.0 mb)
Winds: from the N (360 degrees) at 16 MPH (14 knots; 7.2 m/s)
Visibility: 6 or more miles (10+ km)
Ceiling: at least 12,000 feet AGL
Clouds: few clouds at 4000 feet AGL
scattered clouds at 10000 feet AGL
scattered clouds at 12000 feet AGL
Weather: no significant weather observed at this time

METAR text: OTHH 211700Z 05010KT 020V090 9999 -RA FEW045 SCT100 SCT120 28/16 Q1003 NOSIG
Conditions at: OTHH (DOHA HAMAD INTL , QA) observed 1700 UTC 21 April 2019
Temperature: 28.0°C (82°F)
Dewpoint: 16.0°C (61°F) [RH = 48%]
Pressure (altimeter): 29.62 inches Hg (1003.0 mb)
Winds: from the NE (50 degrees) at 12 MPH (10 knots; 5.1 m/s)
Visibility: 6 or more miles (10+ km)
Ceiling: at least 12,000 feet AGL
Clouds: few clouds at 4500 feet AGL
scattered clouds at 10000 feet AGL
scattered clouds at 12000 feet AGL
Weather: -RA  (light rain)

METAR text: OTHH 211600Z 01018KT 9999 FEW045 SCT100 SCT120 27/17 Q1003 NOSIG
Conditions at: OTHH (DOHA HAMAD INTL , QA) observed 1600 UTC 21 April 2019
Temperature: 27.0°C (81°F)
Dewpoint: 17.0°C (63°F) [RH = 54%]
Pressure (altimeter): 29.62 inches Hg (1003.0 mb)
Winds: from the N (10 degrees) at 21 MPH (18 knots; 9.3 m/s)
Visibility: 6 or more miles (10+ km)
Ceiling: at least 12,000 feet AGL
Clouds: few clouds at 4500 feet AGL
scattered clouds at 10000 feet AGL
scattered clouds at 12000 feet AGL
Weather: no significant weather observed at this time

METAR text: OTHH 211500Z 01012KT 9999 FEW045 SCT100 SCT120 27/16 Q1004 NOSIG
Conditions at: OTHH (DOHA HAMAD INTL , QA) observed 1500 UTC 21 April 2019
Temperature: 27.0°C (81°F)
Dewpoint: 16.0°C (61°F) [RH = 51%]
Pressure (altimeter): 29.65 inches Hg (1004.0 mb)
Winds: from the N (10 degrees) at 14 MPH (12 knots; 6.2 m/s)
Visibility: 6 or more miles (10+ km)
Ceiling: at least 12,000 feet AGL
Clouds: few clouds at 4500 feet AGL
scattered clouds at 10000 feet AGL
scattered clouds at 12000 feet AGL
Weather: no significant weather observed at this time

METAR text: OTHH 211400Z 34011KT 310V020 CAVOK 27/18 Q1004 NOSIG
Conditions at: OTHH (DOHA HAMAD INTL , QA) observed 1400 UTC 21 April 2019
Temperature: 27.0°C (81°F)
Dewpoint: 18.0°C (64°F) [RH = 58%]
Pressure (altimeter): 29.65 inches Hg (1004.0 mb)
Winds: from the NNW (340 degrees) at 13 MPH (11 knots; 5.7 m/s)
Visibility: 6 or more miles (10+ km)
Ceiling: ceiling and visibility are OK
Clouds: unknown
Weather: no significant weather observed at this time

METAR text: OTHH 211300Z 01007KT 330V060 CAVOK 28/18 Q1004 NOSIG
Conditions at: OTHH (DOHA HAMAD INTL , QA) observed 1300 UTC 21 April 2019
Temperature: 28.0°C (82°F)
Dewpoint: 18.0°C (64°F) [RH = 55%]
Pressure (altimeter): 29.65 inches Hg (1004.0 mb)
Winds: from the N (10 degrees) at 8 MPH (7 knots; 3.6 m/s)
Visibility: 6 or more miles (10+ km)
Ceiling: ceiling and visibility are OK
Clouds: unknown
Weather: no significant weather observed at this time

METAR text: OTHH 211200Z 02010KT CAVOK 28/18 Q1004 NOSIG
Conditions at: OTHH (DOHA HAMAD INTL , QA) observed 1200 UTC 21 April 2019
Temperature: 28.0°C (82°F)
Dewpoint: 18.0°C (64°F) [RH = 55%]
Pressure (altimeter): 29.65 inches Hg (1004.0 mb)
Winds: from the NNE (20 degrees) at 12 MPH (10 knots; 5.1 m/s)
Visibility: 6 or more miles (10+ km)
Ceiling: ceiling and visibility are OK
Clouds: unknown
Weather: no significant weather observed at this time

METAR text: OTHH 211100Z 03011KT CAVOK 29/18 Q1004 NOSIG
Conditions at: OTHH (DOHA HAMAD INTL , QA) observed 1100 UTC 21 April 2019
Temperature: 29.0°C (84°F)
Dewpoint: 18.0°C (64°F) [RH = 52%]
Pressure (altimeter): 29.65 inches Hg (1004.0 mb)
Winds: from the NNE (30 degrees) at 13 MPH (11 knots; 5.7 m/s)
Visibility: 6 or more miles (10+ km)
Ceiling: ceiling and visibility are OK
Clouds: unknown
Weather: no significant weather observed at this time

METAR text: OTHH 211000Z 02012KT CAVOK 29/18 Q1006 NOSIG
Conditions at: OTHH (DOHA HAMAD INTL , QA) observed 1000 UTC 21 April 2019
Temperature: 29.0°C (84°F)
Dewpoint: 18.0°C (64°F) [RH = 52%]
Pressure (altimeter): 29.70 inches Hg (1006.0 mb)
Winds: from the NNE (20 degrees) at 14 MPH (12 knots; 6.2 m/s)
Visibility: 6 or more miles (10+ km)
Ceiling: ceiling and visibility are OK
Clouds: unknown
Weather: no significant weather observed at this time

METAR text: OTHH 210900Z 01012KT 9999 FEW048 29/18 Q1007 NOSIG
Conditions at: OTHH (DOHA HAMAD INTL , QA) observed 0900 UTC 21 April 2019
Temperature: 29.0°C (84°F)
Dewpoint: 18.0°C (64°F) [RH = 52%]
Pressure (altimeter): 29.73 inches Hg (1007.0 mb)
Winds: from the N (10 degrees) at 14 MPH (12 knots; 6.2 m/s)
Visibility: 6 or more miles (10+ km)
Ceiling: at least 12,000 feet AGL
Clouds: few clouds at 4800 feet AGL
Weather: no significant weather observed at this time

METAR text: OTHH 210800Z 02013KT CAVOK 28/17 Q1007 NOSIG
Conditions at: OTHH (DOHA HAMAD INTL , QA) observed 0800 UTC 21 April 2019
Temperature: 28.0°C (82°F)
Dewpoint: 17.0°C (63°F) [RH = 51%]
Pressure (altimeter): 29.73 inches Hg (1007.0 mb)
Winds: from the NNE (20 degrees) at 15 MPH (13 knots; 6.7 m/s)
Visibility: 6 or more miles (10+ km)
Ceiling: ceiling and visibility are OK
Clouds: unknown
Weather: no significant weather observed at this time

METAR text: OTHH 210700Z 02014KT CAVOK 29/16 Q1007 NOSIG
Conditions at: OTHH (DOHA HAMAD INTL , QA) observed 0700 UTC 21 April 2019
Temperature: 29.0°C (84°F)
Dewpoint: 16.0°C (61°F) [RH = 45%]
Pressure (altimeter): 29.73 inches Hg (1007.0 mb)
Winds: from the NNE (20 degrees) at 16 MPH (14 knots; 7.2 m/s)
Visibility: 6 or more miles (10+ km)
Ceiling: ceiling and visibility are OK
Clouds: unknown
Weather: no significant weather observed at this time

METAR text: OTHH 210600Z 36015KT CAVOK 29/17 Q1008 NOSIG
Conditions at: OTHH (DOHA HAMAD INTL , QA) observed 0600 UTC 21 April 2019
Temperature: 29.0°C (84°F)
Dewpoint: 17.0°C (63°F) [RH = 48%]
Pressure (altimeter): 29.76 inches Hg (1008.0 mb)
Winds: from the N (360 degrees) at 17 MPH (15 knots; 7.7 m/s)
Visibility: 6 or more miles (10+ km)
Ceiling: ceiling and visibility are OK
Clouds: unknown
Weather: no significant weather observed at this time

METAR text: OTHH 210500Z 36012KT CAVOK 27/18 Q1007 NOSIG
Conditions at: OTHH (DOHA HAMAD INTL , QA) observed 0500 UTC 21 April 2019
Temperature: 27.0°C (81°F)
Dewpoint: 18.0°C (64°F) [RH = 58%]
Pressure (altimeter): 29.73 inches Hg (1007.0 mb)
Winds: from the N (360 degrees) at 14 MPH (12 knots; 6.2 m/s)
Visibility: 6 or more miles (10+ km)
Ceiling: ceiling and visibility are OK
Clouds: unknown
Weather: no significant weather observed at this time

METAR text: OTHH 210400Z AUTO 36016KT CAVOK 27/17 Q1007 NOSIG
Conditions at: OTHH (DOHA HAMAD INTL , QA) observed 0400 UTC 21 April 2019
Temperature: 27.0°C (81°F)
Dewpoint: 17.0°C (63°F) [RH = 54%]
Pressure (altimeter): 29.73 inches Hg (1007.0 mb)
Winds: from the N (360 degrees) at 18 MPH (16 knots; 8.2 m/s)
Visibility: 6 or more miles (10+ km)
Ceiling: ceiling and visibility are OK
Clouds: unknown
Weather: no significant weather observed at this time

METAR text: OTHH 210300Z 36011KT CAVOK 26/18 Q1006 NOSIG
Conditions at: OTHH (DOHA HAMAD INTL , QA) observed 0300 UTC 21 April 2019
Temperature: 26.0°C (79°F)
Dewpoint: 18.0°C (64°F) [RH = 61%]
Pressure (altimeter): 29.70 inches Hg (1006.0 mb)
Winds: from the N (360 degrees) at 13 MPH (11 knots; 5.7 m/s)
Visibility: 6 or more miles (10+ km)
Ceiling: ceiling and visibility are OK
Clouds: unknown
Weather: no significant weather observed at this time

METAR text: OTHH 210200Z 36010KT CAVOK 25/18 Q1006 NOSIG
Conditions at: OTHH (DOHA HAMAD INTL , QA) observed 0200 UTC 21 April 2019
Temperature: 25.0°C (77°F)
Dewpoint: 18.0°C (64°F) [RH = 65%]
Pressure (altimeter): 29.70 inches Hg (1006.0 mb)
Winds: from the N (360 degrees) at 12 MPH (10 knots; 5.1 m/s)
Visibility: 6 or more miles (10+ km)
Ceiling: ceiling and visibility are OK
Clouds: unknown
Weather: no significant weather observed at this time

METAR text: OTHH 210100Z AUTO 35013KT CAVOK 25/18 Q1006 NOSIG
Conditions at: OTHH (DOHA HAMAD INTL , QA) observed 0100 UTC 21 April 2019
Temperature: 25.0°C (77°F)
Dewpoint: 18.0°C (64°F) [RH = 65%]
Pressure (altimeter): 29.70 inches Hg (1006.0 mb)
Winds: from the N (350 degrees) at 15 MPH (13 knots; 6.7 m/s)
Visibility: 6 or more miles (10+ km)
Ceiling: ceiling and visibility are OK
Clouds: unknown
Weather: no significant weather observed at this time

METAR text: OTHH 210000Z AUTO 34010KT CAVOK 25/17 Q1005 NOSIG
Conditions at: OTHH (DOHA HAMAD INTL , QA) observed 0000 UTC 21 April 2019
Temperature: 25.0°C (77°F)
Dewpoint: 17.0°C (63°F) [RH = 61%]
Pressure (altimeter): 29.68 inches Hg (1005.0 mb)
Winds: from the NNW (340 degrees) at 12 MPH (10 knots; 5.1 m/s)
Visibility: 6 or more miles (10+ km)
Ceiling: ceiling and visibility are OK
Clouds: unknown
Weather: no significant weather observed at this time

METAR text: OTHH 202300Z AUTO 35011KT CAVOK 25/19 Q1006 NOSIG
Conditions at: OTHH (DOHA HAMAD INTL , QA) observed 2300 UTC 20 April 2019
Temperature: 25.0°C (77°F)
Dewpoint: 19.0°C (66°F) [RH = 69%]
Pressure (altimeter): 29.70 inches Hg (1006.0 mb)
Winds: from the N (350 degrees) at 13 MPH (11 knots; 5.7 m/s)
Visibility: 6 or more miles (10+ km)
Ceiling: ceiling and visibility are OK
Clouds: unknown
Weather: no significant weather observed at this time

METAR text: OTHH 202200Z AUTO 01012KT 9999 FEW150/// 26/19 Q1006 NOSIG
Conditions at: OTHH (DOHA HAMAD INTL , QA) observed 2200 UTC 20 April 2019
Temperature: 26.0°C (79°F)
Dewpoint: 19.0°C (66°F) [RH = 65%]
Pressure (altimeter): 29.70 inches Hg (1006.0 mb)
Winds: from the N (10 degrees) at 14 MPH (12 knots; 6.2 m/s)
Visibility: 6 or more miles (10+ km)
Ceiling: at least 12,000 feet AGL
Clouds: few clouds at 15000 feet AGL
Weather: no significant weather observed at this time

METAR text: OTHH 202100Z 01014KT CAVOK 26/20 Q1006 NOSIG
Conditions at: OTHH (DOHA HAMAD INTL , QA) observed 2100 UTC 20 April 2019
Temperature: 26.0°C (79°F)
Dewpoint: 20.0°C (68°F) [RH = 70%]
Pressure (altimeter): 29.70 inches Hg (1006.0 mb)
Winds: from the N (10 degrees) at 16 MPH (14 knots; 7.2 m/s)
Visibility: 6 or more miles (10+ km)
Ceiling: ceiling and visibility are OK
Clouds: unknown
Weather: no significant weather observed at this time

METAR text: OTHH 202000Z 01013KT CAVOK 26/20 Q1006 NOSIG
Conditions at: OTHH (DOHA HAMAD INTL , QA) observed 2000 UTC 20 April 2019
Temperature: 26.0°C (79°F)
Dewpoint: 20.0°C (68°F) [RH = 70%]
Pressure (altimeter): 29.70 inches Hg (1006.0 mb)
Winds: from the N (10 degrees) at 15 MPH (13 knots; 6.7 m/s)
Visibility: 6 or more miles (10+ km)
Ceiling: ceiling and visibility are OK
Clouds: unknown
Weather: no significant weather observed at this time

METAR text: OTHH 201900Z 01012KT CAVOK 27/18 Q1006 NOSIG
Conditions at: OTHH (DOHA HAMAD INTL , QA) observed 1900 UTC 20 April 2019
Temperature: 27.0°C (81°F)
Dewpoint: 18.0°C (64°F) [RH = 58%]
Pressure (altimeter): 29.70 inches Hg (1006.0 mb)
Winds: from the N (10 degrees) at 14 MPH (12 knots; 6.2 m/s)
Visibility: 6 or more miles (10+ km)
Ceiling: ceiling and visibility are OK
Clouds: unknown
Weather: no significant weather observed at this time

METAR text: OTHH 201800Z 03010KT CAVOK 27/20 Q1006 NOSIG
Conditions at: OTHH (DOHA HAMAD INTL , QA) observed 1800 UTC 20 April 2019
Temperature: 27.0°C (81°F)
Dewpoint: 20.0°C (68°F) [RH = 66%]
Pressure (altimeter): 29.70 inches Hg (1006.0 mb)
Winds: from the NNE (30 degrees) at 12 MPH (10 knots; 5.1 m/s)
Visibility: 6 or more miles (10+ km)
Ceiling: ceiling and visibility are OK
Clouds: unknown
Weather: no significant weather observed at this time

METAR text: OTHH 201700Z 02010KT CAVOK 27/19 Q1006 NOSIG
Conditions at: OTHH (DOHA HAMAD INTL , QA) observed 1700 UTC 20 April 2019
Temperature: 27.0°C (81°F)
Dewpoint: 19.0°C (66°F) [RH = 62%]
Pressure (altimeter): 29.70 inches Hg (1006.0 mb)
Winds: from the NNE (20 degrees) at 12 MPH (10 knots; 5.1 m/s)
Visibility: 6 or more miles (10+ km)
Ceiling: ceiling and visibility are OK
Clouds: unknown
Weather: no significant weather observed at this time

METAR text: OTHH 201600Z 02009KT CAVOK 27/22 Q1005 NOSIG
Conditions at: OTHH (DOHA HAMAD INTL , QA) observed 1600 UTC 20 April 2019
Temperature: 27.0°C (81°F)
Dewpoint: 22.0°C (72°F) [RH = 74%]
Pressure (altimeter): 29.68 inches Hg (1005.0 mb)
Winds: from the NNE (20 degrees) at 10 MPH (9 knots; 4.6 m/s)
Visibility: 6 or more miles (10+ km)
Ceiling: ceiling and visibility are OK
Clouds: unknown
Weather: no significant weather observed at this time

METAR text: OTHH 201500Z 03009KT 9999 FEW040 28/21 Q1005 NOSIG
Conditions at: OTHH (DOHA HAMAD INTL , QA) observed 1500 UTC 20 April 2019
Temperature: 28.0°C (82°F)
Dewpoint: 21.0°C (70°F) [RH = 66%]
Pressure (altimeter): 29.68 inches Hg (1005.0 mb)
Winds: from the NNE (30 degrees) at 10 MPH (9 knots; 4.6 m/s)
Visibility: 6 or more miles (10+ km)
Ceiling: at least 12,000 feet AGL
Clouds: few clouds at 4000 feet AGL
Weather: no significant weather observed at this time